Aérodrome :
LOGIN :

S'inscrire | Disclaimer

   EN    FR    IT 

 










Légende :    VFR   VFR Marginal   IFR   IFR Intensif   IFR Très Intensif
Visi : 
Plafond : 
>= 8 km
>= 3000ft
5 à 8 km
1000 à 3000 ft
1500m à 5 km
500 à 1000 ft
800 à 1500m
200 à 500 ft
< 800m
< 200 ft
Symboles :   Orages  Brouillard  Fortes neiges  Fortes précipitations  Vent > 20 kt
SIGMETs :   Divers  Orages  Givrage  Turbulence  Onde Orograph.  Cendres Volcan.







- Altitude de l'aérodrome : 776 ft
- Code IATA : RMS


ETAR - Ramstein Air Base

DERNIER METAR :
  • 221356Z AUTO 04019G28KT 9999 CLR 03/M07 A3001 RMK AO2 PK WND 04031/06 SLP179 T00331067 $

METARs EXPIRÉS :
  • 221321Z 04019G31KT 9999 CLR 03/M08 A3002 RMK AO2A SLP182 $
  • 221256Z AUTO 03022G30KT 9999 CLR 03/M08 A3002 RMK AO2 PK WND 06030/26 SLP183 T00271078 $
  • 221156Z AUTO 03022G27KT 9999 CLR 03/M07 A3004 RMK AO2 PK WND 08030/04 SLP188 T00261068 10026 21028 57011 $

TAF TAF ETAR
Valide du 22 à 10h jusqu'au 23 à 16h UTC


221003Z 2210/2316 04015G25KT 9999 FEW030 QNH3002INS
TEMPO 2212/2215 05020G30KT
BECMG 2300/2301 04009KT 9999 SCT025 QNH3001INS
TEMPO 2301/2307 04012G20KT
BECMG 2306/2307 05012G20KT 9999 SCT030 QNH3000INS TX04/2214Z TNM05/2306Z
Pas de NOTAMs connus pour ce terrain.



MET'MAP, la Météo Aéronautique d'un coup d'oeil ! - Copyright ORBIFLY Décembre 2007 - Disclaimer

ORBIFLY MET'MAP TEAM :

Programmation & Développement : Alexandra Zaïnal
Conception & Développement : Baudouin d'Aumeries
Co-Programmation & Développement : Marc-Olivier Méhu
Soutien technique & logistique : Manuel Goepfert

Contact : metmap@orbifly.com




SOURCES & CREDITS :

   NOAA